sensor_id;sensor_type;location;lat;lon;timestamp;pressure;altitude;pressure_sealevel;temperature;humidity
51297;BME280;37380;45.186;9.792;2023-02-28T00:00:43;101665.38;;;4.59;100.00
51297;BME280;37380;45.186;9.792;2023-02-28T00:03:37;101610.69;;;4.43;100.00
51297;BME280;37380;45.186;9.792;2023-02-28T00:06:11;101705.13;;;4.95;100.00
51297;BME280;37380;45.186;9.792;2023-02-28T00:09:12;101694.19;;;4.99;100.00
51297;BME280;37380;45.186;9.792;2023-02-28T00:12:06;101685.84;;;4.91;100.00
51297;BME280;37380;45.186;9.792;2023-02-28T00:14:36;101679.91;;;4.81;100.00
51297;BME280;37380;45.186;9.792;2023-02-28T00:17:03;101676.97;;;4.76;100.00
51297;BME280;37380;45.186;9.792;2023-02-28T00:19:30;101681.25;;;4.75;100.00
51297;BME280;37380;45.186;9.792;2023-02-28T00:22:04;101717.06;;;4.81;100.00
51297;BME280;37380;45.186;9.792;2023-02-28T00:24:58;101680.78;;;4.46;100.00
51297;BME280;37380;45.186;9.792;2023-02-28T00:27:25;101696.78;;;4.52;100.00
51297;BME280;37380;45.186;9.792;2023-02-28T00:29:52;101695.44;;;4.57;100.00
51297;BME280;37380;45.186;9.792;2023-02-28T00:32:20;101697.31;;;4.48;100.00
51297;BME280;37380;45.186;9.792;2023-02-28T00:34:48;101665.78;;;4.30;100.00
51297;BME280;37380;45.186;9.792;2023-02-28T00:37:15;101691.38;;;4.49;100.00
51297;BME280;37380;45.186;9.792;2023-02-28T00:39:42;101713.56;;;4.69;100.00
51297;BME280;37380;45.186;9.792;2023-02-28T00:42:09;101701.38;;;4.56;100.00
51297;BME280;37380;45.186;9.792;2023-02-28T00:44:36;101730.06;;;4.59;100.00
51297;BME280;37380;45.186;9.792;2023-02-28T00:47:04;101682.47;;;4.34;100.00
51297;BME280;37380;45.186;9.792;2023-02-28T00:49:31;101570.88;;;3.72;100.00
51297;BME280;37380;45.186;9.792;2023-02-28T00:52:05;101723.47;;;4.63;100.00
51297;BME280;37380;45.186;9.792;2023-02-28T00:55:07;101721.75;;;4.40;100.00
51297;BME280;37380;45.186;9.792;2023-02-28T00:58:01;101691.13;;;4.34;100.00
51297;BME280;37380;45.186;9.792;2023-02-28T01:00:35;101733.69;;;4.61;100.00
51297;BME280;37380;45.186;9.792;2023-02-28T01:03:36;101697.00;;;4.43;100.00
51297;BME280;37380;45.186;9.792;2023-02-28T01:06:30;101675.47;;;4.32;100.00
51297;BME280;37380;45.186;9.792;2023-02-28T01:08:58;101693.63;;;4.56;100.00
51297;BME280;37380;45.186;9.792;2023-02-28T01:11:25;101738.78;;;4.71;100.00
51297;BME280;37380;45.186;9.792;2023-02-28T01:14:01;101727.63;;;4.61;100.00
51297;BME280;37380;45.186;9.792;2023-02-28T01:16:55;101669.03;;;4.27;100.00
51297;BME280;37380;45.186;9.792;2023-02-28T01:19:26;101690.66;;;4.28;100.00
51297;BME280;37380;45.186;9.792;2023-02-28T01:22:04;101672.03;;;4.10;100.00
51297;BME280;37380;45.186;9.792;2023-02-28T01:24:59;101729.34;;;4.26;100.00
51297;BME280;37380;45.186;9.792;2023-02-28T01:27:26;101719.69;;;4.36;100.00
51297;BME280;37380;45.186;9.792;2023-02-28T01:29:53;101698.53;;;4.29;100.00
51297;BME280;37380;45.186;9.792;2023-02-28T01:32:20;101704.16;;;4.36;100.00
51297;BME280;37380;45.186;9.792;2023-02-28T01:34:49;101723.31;;;4.38;100.00
51297;BME280;37380;45.186;9.792;2023-02-28T01:37:23;101737.69;;;4.34;100.00
51297;BME280;37380;45.186;9.792;2023-02-28T01:40:17;101713.97;;;4.06;100.00
51297;BME280;37380;45.186;9.792;2023-02-28T01:42:44;101682.16;;;4.07;100.00
51297;BME280;37380;45.186;9.792;2023-02-28T01:47:53;101716.88;;;4.32;100.00
51297;BME280;37380;45.186;9.792;2023-02-28T01:50:27;101713.59;;;4.23;100.00
51297;BME280;37380;45.186;9.792;2023-02-28T01:52:56;101706.91;;;4.15;100.00
51297;BME280;37380;45.186;9.792;2023-02-28T01:55:31;101733.59;;;4.14;100.00
51297;BME280;37380;45.186;9.792;2023-02-28T01:58:07;101725.72;;;4.24;100.00
51297;BME280;37380;45.186;9.792;2023-02-28T02:01:09;101710.38;;;4.04;100.00
51297;BME280;37380;45.186;9.792;2023-02-28T02:04:15;101710.72;;;4.08;100.00
51297;BME280;37380;45.186;9.792;2023-02-28T02:07:10;101711.09;;;4.13;100.00
51297;BME280;37380;45.186;9.792;2023-02-28T02:09:38;101712.09;;;4.15;100.00
51297;BME280;37380;45.186;9.792;2023-02-28T02:12:20;101728.00;;;4.31;100.00
51297;BME280;37380;45.186;9.792;2023-02-28T02:15:02;101694.09;;;4.05;100.00
51297;BME280;37380;45.186;9.792;2023-02-28T02:17:42;101683.75;;;4.05;100.00
51297;BME280;37380;45.186;9.792;2023-02-28T02:27:27;101728.88;;;4.20;100.00
51297;BME280;37380;45.186;9.792;2023-02-28T02:36:06;101687.88;;;4.03;100.00
51297;BME280;37380;45.186;9.792;2023-02-28T02:41:18;101716.97;;;4.22;100.00
51297;BME280;37380;45.186;9.792;2023-02-28T02:44:05;101724.16;;;4.26;100.00
51297;BME280;37380;45.186;9.792;2023-02-28T02:46:37;101726.22;;;4.30;100.00
51297;BME280;37380;45.186;9.792;2023-02-28T02:49:10;101708.41;;;4.23;100.00
51297;BME280;37380;45.186;9.792;2023-02-28T02:51:41;101721.44;;;4.13;100.00
51297;BME280;37380;45.186;9.792;2023-02-28T02:54:23;101692.47;;;3.95;100.00
51297;BME280;37380;45.186;9.792;2023-02-28T02:57:08;101711.09;;;4.13;100.00
51297;BME280;37380;45.186;9.792;2023-02-28T03:00:12;101700.03;;;4.04;100.00
51297;BME280;37380;45.186;9.792;2023-02-28T03:03:16;101715.81;;;4.19;100.00
51297;BME280;37380;45.186;9.792;2023-02-28T03:06:26;101714.69;;;4.15;100.00
51297;BME280;37380;45.186;9.792;2023-02-28T03:09:02;101716.28;;;4.13;100.00
51297;BME280;37380;45.186;9.792;2023-02-28T03:12:03;101681.22;;;3.95;100.00
51297;BME280;37380;45.186;9.792;2023-02-28T03:17:49;101719.38;;;4.09;100.00
51297;BME280;37380;45.186;9.792;2023-02-28T03:24:03;101698.22;;;4.03;100.00
51297;BME280;37380;45.186;9.792;2023-02-28T03:26:34;101719.47;;;3.99;100.00
51297;BME280;37380;45.186;9.792;2023-02-28T03:29:19;101731.00;;;3.92;100.00
51297;BME280;37380;45.186;9.792;2023-02-28T03:31:54;101742.69;;;3.65;100.00
51297;BME280;37380;45.186;9.792;2023-02-28T03:34:34;101723.69;;;3.65;100.00
51297;BME280;37380;45.186;9.792;2023-02-28T03:37:12;101727.50;;;3.58;100.00
51297;BME280;37380;45.186;9.792;2023-02-28T03:39:45;101722.91;;;3.66;100.00
51297;BME280;37380;45.186;9.792;2023-02-28T03:42:20;101732.72;;;3.70;100.00
51297;BME280;37380;45.186;9.792;2023-02-28T03:44:59;101697.44;;;3.70;100.00
51297;BME280;37380;45.186;9.792;2023-02-28T03:52:49;101729.41;;;4.04;100.00
51297;BME280;37380;45.186;9.792;2023-02-28T03:55:24;101746.53;;;3.92;100.00
51297;BME280;37380;45.186;9.792;2023-02-28T03:58:40;101729.88;;;3.89;100.00
51297;BME280;37380;45.186;9.792;2023-02-28T04:01:47;101696.34;;;3.78;100.00
51297;BME280;37380;45.186;9.792;2023-02-28T04:04:48;101741.16;;;4.01;100.00
51297;BME280;37380;45.186;9.792;2023-02-28T04:07:15;101724.56;;;4.09;100.00
51297;BME280;37380;45.186;9.792;2023-02-28T04:09:43;101711.16;;;4.03;100.00
51297;BME280;37380;45.186;9.792;2023-02-28T04:12:10;101688.03;;;3.82;100.00
51297;BME280;37380;45.186;9.792;2023-02-28T04:14:37;101698.91;;;4.00;100.00
51297;BME280;37380;45.186;9.792;2023-02-28T04:17:04;101734.81;;;3.85;100.00
51297;BME280;37380;45.186;9.792;2023-02-28T04:19:31;101673.94;;;3.23;100.00
51297;BME280;37380;45.186;9.792;2023-02-28T04:22:09;101745.28;;;3.65;100.00
51297;BME280;37380;45.186;9.792;2023-02-28T04:25:11;101711.53;;;3.42;100.00
51297;BME280;37380;45.186;9.792;2023-02-28T04:28:05;101702.59;;;3.26;100.00
51297;BME280;37380;45.186;9.792;2023-02-28T04:30:32;101699.25;;;3.17;100.00
51297;BME280;37380;45.186;9.792;2023-02-28T04:32:59;101708.72;;;3.38;100.00
51297;BME280;37380;45.186;9.792;2023-02-28T04:35:26;101748.50;;;3.40;100.00
51297;BME280;37380;45.186;9.792;2023-02-28T04:37:53;101754.19;;;3.36;100.00
51297;BME280;37380;45.186;9.792;2023-02-28T04:40:21;101684.06;;;3.10;100.00
51297;BME280;37380;45.186;9.792;2023-02-28T04:42:48;101739.50;;;3.25;100.00
51297;BME280;37380;45.186;9.792;2023-02-28T04:45:15;101751.09;;;3.40;100.00
51297;BME280;37380;45.186;9.792;2023-02-28T04:47:48;101727.53;;;3.15;100.00
51297;BME280;37380;45.186;9.792;2023-02-28T04:50:42;101760.25;;;3.37;100.00
51297;BME280;37380;45.186;9.792;2023-02-28T04:53:09;101716.25;;;3.25;100.00
51297;BME280;37380;45.186;9.792;2023-02-28T04:55:36;101760.28;;;3.59;100.00
51297;BME280;37380;45.186;9.792;2023-02-28T04:58:03;101701.06;;;3.18;100.00
51297;BME280;37380;45.186;9.792;2023-02-28T05:00:36;101748.38;;;3.39;100.00
51297;BME280;37380;45.186;9.792;2023-02-28T05:03:30;101755.72;;;3.45;100.00
51297;BME280;37380;45.186;9.792;2023-02-28T05:05:57;101745.78;;;3.39;100.00
51297;BME280;37380;45.186;9.792;2023-02-28T05:08:24;101740.75;;;3.40;100.00
51297;BME280;37380;45.186;9.792;2023-02-28T05:10:51;101723.44;;;3.39;99.44
51297;BME280;37380;45.186;9.792;2023-02-28T05:13:18;101717.34;;;3.49;100.00
51297;BME280;37380;45.186;9.792;2023-02-28T05:15:45;101731.06;;;3.60;100.00
51297;BME280;37380;45.186;9.792;2023-02-28T05:18:12;101726.50;;;3.46;100.00
51297;BME280;37380;45.186;9.792;2023-02-28T05:20:46;101732.66;;;3.58;99.47
51297;BME280;37380;45.186;9.792;2023-02-28T05:23:40;101695.25;;;3.43;98.91
51297;BME280;37380;45.186;9.792;2023-02-28T05:26:07;101731.06;;;3.60;99.56
51297;BME280;37380;45.186;9.792;2023-02-28T05:28:55;101739.38;;;3.56;99.19
51297;BME280;37380;45.186;9.792;2023-02-28T05:31:56;101754.53;;;3.73;99.34
51297;BME280;37380;45.186;9.792;2023-02-28T05:34:57;101744.66;;;3.35;99.93
51297;BME280;37380;45.186;9.792;2023-02-28T05:37:51;101767.84;;;3.46;100.00
51297;BME280;37380;45.186;9.792;2023-02-28T05:40:18;101765.06;;;3.65;100.00
51297;BME280;37380;45.186;9.792;2023-02-28T05:42:47;101764.47;;;3.79;100.00
51297;BME280;37380;45.186;9.792;2023-02-28T05:45:16;101699.53;;;3.42;99.83
51297;BME280;37380;45.186;9.792;2023-02-28T05:47:44;101738.34;;;3.54;100.00
51297;BME280;37380;45.186;9.792;2023-02-28T05:50:11;101760.84;;;3.77;100.00
51297;BME280;37380;45.186;9.792;2023-02-28T05:52:38;101689.38;;;3.33;100.00
51297;BME280;37380;45.186;9.792;2023-02-28T05:55:05;101722.94;;;3.33;100.00
51297;BME280;37380;45.186;9.792;2023-02-28T05:57:33;101713.69;;;3.25;100.00
51297;BME280;37380;45.186;9.792;2023-02-28T05:59:59;101751.25;;;3.32;100.00
51297;BME280;37380;45.186;9.792;2023-02-28T06:02:26;101750.06;;;3.38;100.00
51297;BME280;37380;45.186;9.792;2023-02-28T06:04:53;101757.72;;;3.59;100.00
51297;BME280;37380;45.186;9.792;2023-02-28T06:07:20;101727.94;;;3.42;100.00
51297;BME280;37380;45.186;9.792;2023-02-28T06:09:49;101704.78;;;3.22;100.00
51297;BME280;37380;45.186;9.792;2023-02-28T06:12:16;101709.31;;;3.24;100.00
51297;BME280;37380;45.186;9.792;2023-02-28T06:14:49;101789.22;;;3.65;100.00
51297;BME280;37380;45.186;9.792;2023-02-28T06:17:50;101781.06;;;3.60;100.00
51297;BME280;37380;45.186;9.792;2023-02-28T06:20:54;101738.19;;;3.40;100.00
51297;BME280;37380;45.186;9.792;2023-02-28T06:23:56;101804.16;;;3.69;100.00
51297;BME280;37380;45.186;9.792;2023-02-28T06:26:58;101805.81;;;3.79;100.00
51297;BME280;37380;45.186;9.792;2023-02-28T06:29:35;101809.16;;;3.78;100.00
51297;BME280;37380;45.186;9.792;2023-02-28T06:32:02;101793.31;;;3.73;100.00
51297;BME280;37380;45.186;9.792;2023-02-28T06:34:29;101815.50;;;3.81;100.00
51297;BME280;37380;45.186;9.792;2023-02-28T06:36:57;101786.88;;;3.68;100.00
51297;BME280;37380;45.186;9.792;2023-02-28T06:39:31;101818.91;;;3.92;100.00
51297;BME280;37380;45.186;9.792;2023-02-28T06:41:58;101784.72;;;3.84;100.00
51297;BME280;37380;45.186;9.792;2023-02-28T06:44:25;101791.47;;;4.04;100.00
51297;BME280;37380;45.186;9.792;2023-02-28T06:46:52;101768.63;;;3.99;100.00
51297;BME280;37380;45.186;9.792;2023-02-28T06:49:19;101789.00;;;3.84;100.00
51297;BME280;37380;45.186;9.792;2023-02-28T06:51:46;101829.16;;;4.13;100.00
51297;BME280;37380;45.186;9.792;2023-02-28T06:54:13;101823.56;;;3.96;100.00
51297;BME280;37380;45.186;9.792;2023-02-28T06:56:40;101741.53;;;3.83;100.00
51297;BME280;37380;45.186;9.792;2023-02-28T06:59:14;101826.72;;;4.48;100.00
51297;BME280;37380;45.186;9.792;2023-02-28T07:02:15;101754.91;;;4.34;100.00
51297;BME280;37380;45.186;9.792;2023-02-28T07:05:16;101804.41;;;4.72;100.00
51297;BME280;37380;45.186;9.792;2023-02-28T07:08:17;101796.63;;;4.72;100.00
51297;BME280;37380;45.186;9.792;2023-02-28T07:11:11;101794.75;;;4.81;100.00
51297;BME280;37380;45.186;9.792;2023-02-28T07:13:38;101764.34;;;4.79;100.00
51297;BME280;37380;45.186;9.792;2023-02-28T07:16:06;101726.97;;;4.87;100.00
51297;BME280;37380;45.186;9.792;2023-02-28T07:18:36;101837.31;;;5.79;100.00
51297;BME280;37380;45.186;9.792;2023-02-28T07:21:10;101834.63;;;5.77;100.00
51297;BME280;37380;45.186;9.792;2023-02-28T07:23:58;101837.44;;;5.80;100.00
51297;BME280;37380;45.186;9.792;2023-02-28T07:26:32;101811.88;;;5.73;100.00
51297;BME280;37380;45.186;9.792;2023-02-28T07:29:26;101828.56;;;5.30;100.00
51297;BME280;37380;45.186;9.792;2023-02-28T07:31:53;101843.06;;;5.86;100.00
51297;BME280;37380;45.186;9.792;2023-02-28T07:34:20;101777.84;;;5.57;100.00
51297;BME280;37380;45.186;9.792;2023-02-28T07:36:48;101817.84;;;5.60;100.00
51297;BME280;37380;45.186;9.792;2023-02-28T07:39:15;101801.28;;;5.23;100.00
51297;BME280;37380;45.186;9.792;2023-02-28T07:41:42;101843.22;;;5.64;100.00
51297;BME280;37380;45.186;9.792;2023-02-28T07:44:11;101842.75;;;5.35;100.00
51297;BME280;37380;45.186;9.792;2023-02-28T07:46:38;101840.28;;;5.25;100.00
51297;BME280;37380;45.186;9.792;2023-02-28T07:49:05;101842.06;;;5.14;100.00
51297;BME280;37380;45.186;9.792;2023-02-28T07:51:39;101851.03;;;4.84;100.00
51297;BME280;37380;45.186;9.792;2023-02-28T07:54:33;101848.81;;;5.12;100.00
51297;BME280;37380;45.186;9.792;2023-02-28T07:57:04;101843.53;;;4.65;100.00
51297;BME280;37380;45.186;9.792;2023-02-28T07:59:31;101826.13;;;4.86;100.00
51297;BME280;37380;45.186;9.792;2023-02-28T08:01:58;101838.38;;;5.22;100.00
51297;BME280;37380;45.186;9.792;2023-02-28T08:04:26;101847.84;;;4.76;100.00
51297;BME280;37380;45.186;9.792;2023-02-28T08:06:53;101828.44;;;5.05;100.00
51297;BME280;37380;45.186;9.792;2023-02-28T08:09:20;101861.66;;;5.10;100.00
51297;BME280;37380;45.186;9.792;2023-02-28T08:11:47;101811.84;;;4.91;100.00
51297;BME280;37380;45.186;9.792;2023-02-28T08:14:22;101796.53;;;4.82;100.00
51297;BME280;37380;45.186;9.792;2023-02-28T08:17:23;101804.22;;;5.04;100.00
51297;BME280;37380;45.186;9.792;2023-02-28T08:20:25;101843.66;;;5.71;100.00
51297;BME280;37380;45.186;9.792;2023-02-28T08:23:26;101860.56;;;5.65;100.00
51297;BME280;37380;45.186;9.792;2023-02-28T08:26:27;101832.03;;;5.65;100.00
51297;BME280;37380;45.186;9.792;2023-02-28T08:29:21;101842.16;;;5.86;100.00
51297;BME280;37380;45.186;9.792;2023-02-28T08:31:55;101860.47;;;6.24;100.00
51297;BME280;37380;45.186;9.792;2023-02-28T08:35:14;101837.25;;;6.26;95.43
51297;BME280;37380;45.186;9.792;2023-02-28T08:38:15;101842.47;;;6.39;96.32
51297;BME280;37380;45.186;9.792;2023-02-28T08:40:45;101795.59;;;5.76;90.22
51297;BME280;37380;45.186;9.792;2023-02-28T08:43:12;101860.19;;;5.96;90.89
51297;BME280;37380;45.186;9.792;2023-02-28T08:45:39;101832.13;;;5.79;90.81
51297;BME280;37380;45.186;9.792;2023-02-28T08:48:07;101851.88;;;6.25;88.86
51297;BME280;37380;45.186;9.792;2023-02-28T08:50:34;101830.19;;;6.37;86.05
51297;BME280;37380;45.186;9.792;2023-02-28T08:53:01;101852.94;;;6.16;87.62
51297;BME280;37380;45.186;9.792;2023-02-28T08:55:28;101877.16;;;6.28;90.50
51297;BME280;37380;45.186;9.792;2023-02-28T08:57:55;101850.03;;;6.11;88.75
51297;BME280;37380;45.186;9.792;2023-02-28T09:00:28;101870.59;;;6.33;81.77
51297;BME280;37380;45.186;9.792;2023-02-28T09:03:23;101822.94;;;6.07;82.40
51297;BME280;37380;45.186;9.792;2023-02-28T09:05:59;101842.28;;;6.99;78.36
51297;BME280;37380;45.186;9.792;2023-02-28T09:08:29;101875.34;;;6.64;80.56
51297;BME280;37380;45.186;9.792;2023-02-28T09:10:57;101877.34;;;6.68;77.73
51297;BME280;37380;45.186;9.792;2023-02-28T09:13:27;101849.53;;;6.28;80.56
51297;BME280;37380;45.186;9.792;2023-02-28T09:15:57;101873.72;;;7.29;74.34
51297;BME280;37380;45.186;9.792;2023-02-28T09:18:26;101844.56;;;6.95;76.35
51297;BME280;37380;45.186;9.792;2023-02-28T09:20:59;101847.91;;;7.32;74.52
51297;BME280;37380;45.186;9.792;2023-02-28T09:23:55;101843.94;;;7.51;72.92
51297;BME280;37380;45.186;9.792;2023-02-28T09:26:49;101847.22;;;7.35;73.55
51297;BME280;37380;45.186;9.792;2023-02-28T09:29:32;101863.09;;;7.79;70.75
51297;BME280;37380;45.186;9.792;2023-02-28T09:32:05;101855.69;;;7.99;71.85
51297;BME280;37380;45.186;9.792;2023-02-28T09:34:59;101881.94;;;8.43;65.90
51297;BME280;37380;45.186;9.792;2023-02-28T09:37:27;101869.84;;;7.62;68.43
51297;BME280;37380;45.186;9.792;2023-02-28T09:39:56;101832.59;;;7.23;71.47
51297;BME280;37380;45.186;9.792;2023-02-28T09:42:32;101886.88;;;8.38;67.39
51297;BME280;37380;45.186;9.792;2023-02-28T09:45:11;101849.63;;;7.71;67.13
51297;BME280;37380;45.186;9.792;2023-02-28T09:47:45;101856.13;;;7.91;68.56
51297;BME280;37380;45.186;9.792;2023-02-28T09:50:28;101869.31;;;7.81;66.38
51297;BME280;37380;45.186;9.792;2023-02-28T09:52:56;101881.75;;;7.72;69.77
51297;BME280;37380;45.186;9.792;2023-02-28T09:55:45;101875.38;;;8.08;70.09
51297;BME280;37380;45.186;9.792;2023-02-28T09:58:37;101844.53;;;7.46;69.50
51297;BME280;37380;45.186;9.792;2023-02-28T10:01:52;101867.09;;;7.87;69.19
51297;BME280;37380;45.186;9.792;2023-02-28T10:04:51;101876.72;;;7.62;70.30
51297;BME280;37380;45.186;9.792;2023-02-28T10:09:59;101849.63;;;7.71;69.56
51297;BME280;37380;45.186;9.792;2023-02-28T10:12:29;101850.91;;;7.91;68.15
51297;BME280;37380;45.186;9.792;2023-02-28T10:14:59;101748.56;;;8.06;65.88
51297;BME280;37380;45.186;9.792;2023-02-28T10:17:34;101834.28;;;8.31;65.80
51297;BME280;37380;45.186;9.792;2023-02-28T10:20:27;101880.31;;;8.45;68.40
51297;BME280;37380;45.186;9.792;2023-02-28T10:23:34;101841.59;;;7.02;70.66
51297;BME280;37380;45.186;9.792;2023-02-28T10:26:13;101834.94;;;7.19;70.09
51297;BME280;37380;45.186;9.792;2023-02-28T10:28:43;101858.78;;;7.93;69.01
51297;BME280;37380;45.186;9.792;2023-02-28T10:31:19;101868.72;;;7.72;68.32
51297;BME280;37380;45.186;9.792;2023-02-28T10:34:20;101869.13;;;7.78;69.13
51297;BME280;37380;45.186;9.792;2023-02-28T10:37:21;101849.50;;;8.25;66.88
51297;BME280;37380;45.186;9.792;2023-02-28T10:40:30;101831.97;;;8.35;67.94
51297;BME280;37380;45.186;9.792;2023-02-28T10:42:58;101878.25;;;8.26;65.28
51297;BME280;37380;45.186;9.792;2023-02-28T10:45:32;101845.19;;;8.25;63.58
51297;BME280;37380;45.186;9.792;2023-02-28T10:48:05;101823.09;;;7.77;65.51
51297;BME280;37380;45.186;9.792;2023-02-28T10:55:43;101821.94;;;7.45;66.49
51297;BME280;37380;45.186;9.792;2023-02-28T10:58:25;101834.41;;;7.78;68.92
51297;BME280;37380;45.186;9.792;2023-02-28T11:00:52;101863.47;;;8.12;69.01
51297;BME280;37380;45.186;9.792;2023-02-28T11:03:30;101840.75;;;8.51;65.66
51297;BME280;37380;45.186;9.792;2023-02-28T11:06:17;101849.28;;;8.63;64.51
51297;BME280;37380;45.186;9.792;2023-02-28T11:09:33;101803.69;;;8.70;63.71
51297;BME280;37380;45.186;9.792;2023-02-28T11:12:38;101853.00;;;8.38;63.63
51297;BME280;37380;45.186;9.792;2023-02-28T11:18:39;101759.09;;;7.66;64.62
51297;BME280;37380;45.186;9.792;2023-02-28T11:20:50;101828.53;;;8.36;63.67
51297;BME280;37380;45.186;9.792;2023-02-28T11:23:48;101829.38;;;8.78;63.82
51297;BME280;37380;45.186;9.792;2023-02-28T11:26:16;101789.19;;;8.60;62.18
51297;BME280;37380;45.186;9.792;2023-02-28T11:29:29;101794.69;;;9.09;63.88
51297;BME280;37380;45.186;9.792;2023-02-28T11:37:38;101733.69;;;8.18;62.32
51297;BME280;37380;45.186;9.792;2023-02-28T11:40:13;101766.28;;;8.54;62.44
51297;BME280;37380;45.186;9.792;2023-02-28T11:45:55;101759.94;;;9.40;60.73
51297;BME280;37380;45.186;9.792;2023-02-28T11:49:12;101763.72;;;8.99;61.98
51297;BME280;37380;45.186;9.792;2023-02-28T12:03:25;101758.03;;;9.06;60.01
51297;BME280;37380;45.186;9.792;2023-02-28T12:06:18;101736.19;;;8.89;62.70
51297;BME280;37380;45.186;9.792;2023-02-28T12:09:43;101728.63;;;9.09;62.41
51297;BME280;37380;45.186;9.792;2023-02-28T12:15:28;101748.28;;;9.81;63.46
51297;BME280;37380;45.186;9.792;2023-02-28T12:27:05;101724.63;;;10.10;63.41
51297;BME280;37380;45.186;9.792;2023-02-28T12:30:00;101730.50;;;10.23;59.71
51297;BME280;37380;45.186;9.792;2023-02-28T12:33:05;101730.34;;;10.03;58.76
51297;BME280;37380;45.186;9.792;2023-02-28T12:35:59;101710.53;;;10.07;58.76
51297;BME280;37380;45.186;9.792;2023-02-28T12:38:50;101703.69;;;9.45;61.20
51297;BME280;37380;45.186;9.792;2023-02-28T12:41:50;101721.28;;;10.13;59.76
51297;BME280;37380;45.186;9.792;2023-02-28T12:44:49;101715.72;;;9.26;61.30
51297;BME280;37380;45.186;9.792;2023-02-28T12:47:44;101661.28;;;9.16;63.72
51297;BME280;37380;45.186;9.792;2023-02-28T12:50:39;101708.22;;;9.64;63.44
51297;BME280;37380;45.186;9.792;2023-02-28T12:53:17;101714.34;;;9.64;61.33
51297;BME280;37380;45.186;9.792;2023-02-28T12:56:14;101701.09;;;9.45;62.92
51297;BME280;37380;45.186;9.792;2023-02-28T12:58:56;101668.50;;;9.37;59.78
51297;BME280;37380;45.186;9.792;2023-02-28T13:11:37;101691.00;;;10.16;58.40
51297;BME280;37380;45.186;9.792;2023-02-28T13:20:01;101630.66;;;10.62;56.56
51297;BME280;37380;45.186;9.792;2023-02-28T13:22:40;101671.66;;;10.81;54.37
51297;BME280;37380;45.186;9.792;2023-02-28T13:25:49;101663.97;;;11.02;55.60
51297;BME280;37380;45.186;9.792;2023-02-28T13:34:37;101557.03;;;9.01;56.05
51297;BME280;37380;45.186;9.792;2023-02-28T13:43:02;101608.91;;;9.44;56.08
51297;BME280;37380;45.186;9.792;2023-02-28T13:46:13;101609.00;;;9.46;56.19
51297;BME280;37380;45.186;9.792;2023-02-28T13:52:20;101625.03;;;9.37;58.79
51297;BME280;37380;45.186;9.792;2023-02-28T14:03:55;101609.53;;;8.93;59.87
51297;BME280;37380;45.186;9.792;2023-02-28T14:07:01;101629.78;;;9.13;60.53
51297;BME280;37380;45.186;9.792;2023-02-28T14:10:41;101599.50;;;8.99;63.89
51297;BME280;37380;45.186;9.792;2023-02-28T14:13:40;101623.91;;;9.48;61.83
51297;BME280;37380;45.186;9.792;2023-02-28T14:16:23;101598.22;;;9.56;61.68
51297;BME280;37380;45.186;9.792;2023-02-28T14:19:02;101605.09;;;9.54;59.66
51297;BME280;37380;45.186;9.792;2023-02-28T14:36:42;101578.41;;;9.11;60.45
51297;BME280;37380;45.186;9.792;2023-02-28T14:39:22;101604.97;;;9.20;61.22
51297;BME280;37380;45.186;9.792;2023-02-28T14:41:49;101570.72;;;8.97;61.12
51297;BME280;37380;45.186;9.792;2023-02-28T14:44:25;101574.53;;;9.04;60.82
51297;BME280;37380;45.186;9.792;2023-02-28T14:47:35;101587.19;;;9.13;60.28
51297;BME280;37380;45.186;9.792;2023-02-28T14:50:37;101580.97;;;8.63;60.81
51297;BME280;37380;45.186;9.792;2023-02-28T14:53:49;101549.09;;;8.67;61.28
51297;BME280;37380;45.186;9.792;2023-02-28T14:56:26;101541.94;;;8.48;61.66
51297;BME280;37380;45.186;9.792;2023-02-28T14:59:31;101564.84;;;8.85;61.33
51297;BME280;37380;45.186;9.792;2023-02-28T15:02:18;101585.13;;;9.07;63.11
51297;BME280;37380;45.186;9.792;2023-02-28T15:08:15;101586.00;;;9.22;69.83
51297;BME280;37380;45.186;9.792;2023-02-28T15:10:51;101582.16;;;9.32;67.69
51297;BME280;37380;45.186;9.792;2023-02-28T15:13:20;101571.97;;;9.20;69.90
51297;BME280;37380;45.186;9.792;2023-02-28T15:16:22;101535.69;;;8.92;70.55
51297;BME280;37380;45.186;9.792;2023-02-28T15:19:29;101562.16;;;9.00;70.97
51297;BME280;37380;45.186;9.792;2023-02-28T15:22:36;101585.41;;;9.12;71.58
51297;BME280;37380;45.186;9.792;2023-02-28T15:25:37;101574.25;;;9.14;72.00
51297;BME280;37380;45.186;9.792;2023-02-28T15:28:34;101561.84;;;8.94;76.38
51297;BME280;37380;45.186;9.792;2023-02-28T15:31:20;101488.84;;;8.46;76.84
51297;BME280;37380;45.186;9.792;2023-02-28T15:33:58;101520.16;;;8.63;76.91
51297;BME280;37380;45.186;9.792;2023-02-28T15:36:55;101553.97;;;8.77;77.06
51297;BME280;37380;45.186;9.792;2023-02-28T15:39:25;101508.00;;;8.47;78.85
51297;BME280;37380;45.186;9.792;2023-02-28T15:42:10;101504.66;;;8.34;77.50
51297;BME280;37380;45.186;9.792;2023-02-28T15:44:38;101575.81;;;8.79;77.25
51297;BME280;37380;45.186;9.792;2023-02-28T15:50:14;101379.78;;;7.59;80.76
51297;BME280;37380;45.186;9.792;2023-02-28T15:52:44;101453.38;;;8.02;81.98
51297;BME280;37380;45.186;9.792;2023-02-28T15:55:24;101421.59;;;7.77;82.68
51297;BME280;37380;45.186;9.792;2023-02-28T15:58:21;101396.84;;;7.68;81.57
51297;BME280;37380;45.186;9.792;2023-02-28T16:04:14;101512.13;;;8.28;82.39
51297;BME280;37380;45.186;9.792;2023-02-28T16:07:14;101549.63;;;8.32;82.81
51297;BME280;37380;45.186;9.792;2023-02-28T16:09:41;101519.06;;;8.13;82.99
51297;BME280;37380;45.186;9.792;2023-02-28T16:12:09;101523.75;;;8.04;84.00
51297;BME280;37380;45.186;9.792;2023-02-28T16:14:40;101538.38;;;7.87;86.33
51297;BME280;37380;45.186;9.792;2023-02-28T16:17:20;101543.28;;;7.82;88.44
51297;BME280;37380;45.186;9.792;2023-02-28T16:19:48;101572.28;;;7.88;90.59
51297;BME280;37380;45.186;9.792;2023-02-28T16:22:21;101515.53;;;7.53;90.82